Time;durP1;ratioP1;P1;durP2;ratioP2;P2;SDS_P1;SDS_P2;PMS_P1;PMS_P2;Temp;Humidity;BMP_temperature;BMP_pressure;BME280_temperature;BME280_humidity;BME280_pressure;Samples;Min_cycle;Max_cycle;Signal;HPM_P1;HPM_P2
2021/03/12 00:00:45;;;;;;;39.58;29.73;;;;;;;;;;4352785;32;20036;-77
2021/03/12 00:03:14;;;;;;;42.50;33.05;;;;;;;;;;4352525;32;20453;-77
2021/03/12 00:05:48;;;;;;;40.47;33.42;;;;;;;;;;4349128;32;20069;-78
2021/03/12 00:08:16;;;;;;;47.17;41.33;;;;;;;;;;4349315;32;20059;-77
2021/03/12 00:10:45;;;;;;;43.22;34.35;;;;;;;;;;4352676;32;20382;-77
2021/03/12 00:13:12;;;;;;;44.92;35.78;;;;;;;;;;4349641;32;20403;-79
2021/03/12 00:15:41;;;;;;;44.60;34.65;;;;;;;;;;4350474;32;20486;-78
2021/03/12 00:18:09;;;;;;;37.35;31.83;;;;;;;;;;4346546;32;20052;-78
2021/03/12 00:20:39;;;;;;;47.38;34.75;;;;;;;;;;4354415;32;20055;-78
2021/03/12 00:23:07;;;;;;;45.15;33.53;;;;;;;;;;4346963;32;20088;-78
2021/03/12 00:25:35;;;;;;;46.05;35.15;;;;;;;;;;4348529;32;20406;-78
2021/03/12 00:28:04;;;;;;;26.10;16.83;;;;;;;;;;4343552;33;20387;-78
2021/03/12 00:30:33;;;;;;;39.40;28.10;;;;;;;;;;4346215;32;20067;-77
2021/03/12 00:33:01;;;;;;;31.90;25.98;;;;;;;;;;4339678;33;20121;-78
2021/03/12 00:35:29;;;;;;;41.60;27.27;;;;;;;;;;4349970;32;20483;-78
2021/03/12 00:37:58;;;;;;;31.67;21.73;;;;;;;;;;4346865;32;20111;-78
2021/03/12 00:40:28;;;;;;;35.42;25.15;;;;;;;;;;4346399;32;20043;-79
2021/03/12 00:42:56;;;;;;;23.65;11.10;;;;;;;;;;4348503;33;20074;-78
2021/03/12 00:45:25;;;;;;;21.65;9.13;;;;;;;;;;4349575;32;20070;-78
2021/03/12 00:47:54;;;;;;;19.40;10.07;;;;;;;;;;4349611;32;20081;-77
2021/03/12 00:50:32;;;;;;;19.92;10.15;;;;;;;;;;4346693;32;20110;-78
2021/03/12 00:53:01;;;;;;;26.95;11.98;;;;;;;;;;4346845;32;20142;-78
2021/03/12 00:55:30;;;;;;;17.95;13.15;;;;;;;;;;4346966;32;20115;-78
2021/03/12 00:57:58;;;;;;;21.98;11.77;;;;;;;;;;4346155;32;20518;-78
2021/03/12 01:00:27;;;;;;;17.23;10.15;;;;;;;;;;4345293;32;20135;-78
2021/03/12 01:02:58;;;;;;;18.00;12.00;;;;;;;;;;4353147;32;20051;-77
2021/03/12 01:05:27;;;;;;;16.70;7.45;;;;;;;;;;4352407;32;20064;-77
2021/03/12 01:07:55;;;;;;;13.05;5.43;;;;;;;;;;4348601;32;20391;-78
2021/03/12 01:10:24;;;;;;;23.42;9.85;;;;;;;;;;4348589;32;20077;-78
2021/03/12 01:12:53;;;;;;;21.50;14.50;;;;;;;;;;4347463;33;20812;-77
2021/03/12 01:15:23;;;;;;;16.40;6.70;;;;;;;;;;4349959;32;20427;-78
2021/03/12 01:17:52;;;;;;;16.08;6.20;;;;;;;;;;4350334;32;20051;-77
2021/03/12 01:20:26;;;;;;;15.50;5.53;;;;;;;;;;4346972;32;20110;-78
2021/03/12 01:22:58;;;;;;;31.60;25.35;;;;;;;;;;4346670;32;20105;-78
2021/03/12 01:25:31;;;;;;;36.60;26.25;;;;;;;;;;4348313;33;20102;-78
2021/03/12 01:27:59;;;;;;;24.63;18.05;;;;;;;;;;4351154;32;20066;-78
2021/03/12 01:30:39;;;;;;;25.02;22.20;;;;;;;;;;4343118;33;20051;-78
2021/03/12 01:33:09;;;;;;;16.55;5.12;;;;;;;;;;4348065;32;20183;-78
2021/03/12 01:35:37;;;;;;;15.48;5.95;;;;;;;;;;4350413;32;20101;-78
2021/03/12 01:38:06;;;;;;;20.92;5.40;;;;;;;;;;4348149;32;20126;-78
2021/03/12 01:40:35;;;;;;;19.52;5.72;;;;;;;;;;4346203;32;20052;-79
2021/03/12 01:43:04;;;;;;;34.22;25.65;;;;;;;;;;4348243;32;20059;-77
2021/03/12 01:45:37;;;;;;;42.15;32.53;;;;;;;;;;4349300;32;20055;-78
2021/03/12 01:48:25;;;;;;;26.90;23.00;;;;;;;;;;4349802;32;20494;-77
2021/03/12 01:51:04;;;;;;;21.87;15.35;;;;;;;;;;4350571;32;20504;-79
2021/03/12 01:53:34;;;;;;;15.52;10.20;;;;;;;;;;4348229;32;20074;-77
2021/03/12 01:56:04;;;;;;;13.40;5.12;;;;;;;;;;4348365;32;20069;-77
2021/03/12 01:58:35;;;;;;;22.52;16.60;;;;;;;;;;4348037;32;20084;-77
2021/03/12 02:01:04;;;;;;;15.05;5.57;;;;;;;;;;4345001;33;20735;-78
2021/03/12 02:03:34;;;;;;;16.58;4.87;;;;;;;;;;4349056;32;20085;-77
2021/03/12 02:06:04;;;;;;;15.13;4.80;;;;;;;;;;4348409;32;20107;-78
2021/03/12 02:08:33;;;;;;;15.00;5.10;;;;;;;;;;4344115;33;20327;-77
2021/03/12 02:11:02;;;;;;;13.65;4.85;;;;;;;;;;4344975;33;20455;-79
2021/03/12 02:13:50;;;;;;;13.10;5.03;;;;;;;;;;4346304;33;20381;-77
2021/03/12 02:16:38;;;;;;;13.80;4.68;;;;;;;;;;4340246;33;20118;-77
2021/03/12 02:19:06;;;;;;;32.22;23.30;;;;;;;;;;4346730;32;20047;-77
2021/03/12 02:21:36;;;;;;;29.40;19.17;;;;;;;;;;4348716;32;20434;-78
2021/03/12 02:24:11;;;;;;;25.40;20.02;;;;;;;;;;4348098;32;20161;-77
2021/03/12 02:26:42;;;;;;;16.00;5.28;;;;;;;;;;4338329;33;20045;-77
2021/03/12 02:29:14;;;;;;;19.65;5.22;;;;;;;;;;4340629;33;20158;-77
2021/03/12 02:31:43;;;;;;;16.30;4.82;;;;;;;;;;4343458;33;20469;-77
2021/03/12 02:34:12;;;;;;;17.33;5.57;;;;;;;;;;4349784;33;20091;-77
2021/03/12 02:36:42;;;;;;;20.35;6.15;;;;;;;;;;4350004;33;20052;-77
2021/03/12 02:39:11;;;;;;;13.50;5.30;;;;;;;;;;4338571;33;20104;-77
2021/03/12 02:41:40;;;;;;;13.45;5.15;;;;;;;;;;4343742;33;20466;-79
2021/03/12 02:44:09;;;;;;;18.60;5.37;;;;;;;;;;4349923;33;20076;-77
2021/03/12 02:46:38;;;;;;;18.00;5.07;;;;;;;;;;4351470;33;20478;-78
2021/03/12 02:49:07;;;;;;;13.30;4.93;;;;;;;;;;4341621;33;20066;-77
2021/03/12 02:51:36;;;;;;;15.48;5.30;;;;;;;;;;4349247;32;20345;-77
2021/03/12 02:54:06;;;;;;;15.82;5.45;;;;;;;;;;4350816;32;20427;-77
2021/03/12 02:56:34;;;;;;;18.05;5.78;;;;;;;;;;4353978;32;20100;-77
2021/03/12 02:59:08;;;;;;;15.80;5.37;;;;;;;;;;4351241;32;20139;-78
2021/03/12 03:01:39;;;;;;;11.48;4.95;;;;;;;;;;4351899;33;20060;-77
2021/03/12 03:04:08;;;;;;;22.42;5.47;;;;;;;;;;4352472;32;20426;-77
2021/03/12 03:06:36;;;;;;;16.65;5.35;;;;;;;;;;4353074;32;20102;-77
2021/03/12 03:09:05;;;;;;;14.93;6.07;;;;;;;;;;4347876;32;20197;-78
2021/03/12 03:14:32;;;;;;;16.62;5.47;;;;;;;;;;4346348;32;20517;-79
2021/03/12 03:17:02;;;;;;;19.70;5.50;;;;;;;;;;4349228;32;20055;-78
2021/03/12 03:19:31;;;;;;;16.83;5.85;;;;;;;;;;4346779;32;20053;-78
2021/03/12 03:22:00;;;;;;;15.70;6.07;;;;;;;;;;4427167;27;20056;-78
2021/03/12 03:24:29;;;;;;;20.30;5.80;;;;;;;;;;4352243;32;20097;-77
2021/03/12 03:26:57;;;;;;;16.27;6.00;;;;;;;;;;4367623;32;20573;-77
2021/03/12 03:29:26;;;;;;;20.10;6.40;;;;;;;;;;4366081;32;20055;-77
2021/03/12 03:31:54;;;;;;;19.48;6.18;;;;;;;;;;4364806;32;20070;-77
2021/03/12 03:34:22;;;;;;;19.98;5.72;;;;;;;;;;4369200;32;20135;-77
2021/03/12 03:36:50;;;;;;;16.90;5.87;;;;;;;;;;4366595;32;20234;-77
2021/03/12 03:39:19;;;;;;;18.75;5.15;;;;;;;;;;4367033;32;20039;-77
2021/03/12 03:41:50;;;;;;;13.77;5.70;;;;;;;;;;4366117;32;20047;-77
2021/03/12 03:44:28;;;;;;;22.17;6.05;;;;;;;;;;4370337;32;20063;-77
2021/03/12 03:46:58;;;;;;;22.55;5.68;;;;;;;;;;4365792;32;20587;-77
2021/03/12 03:49:29;;;;;;;16.80;6.18;;;;;;;;;;4364834;32;20059;-77
2021/03/12 03:51:57;;;;;;;17.62;6.53;;;;;;;;;;4366451;32;20407;-77
2021/03/12 03:54:27;;;;;;;16.45;5.47;;;;;;;;;;4370677;32;20093;-77
2021/03/12 03:56:57;;;;;;;15.80;5.82;;;;;;;;;;4367433;32;20097;-77
2021/03/12 03:59:25;;;;;;;20.58;6.10;;;;;;;;;;4361176;32;20540;-77
2021/03/12 04:01:54;;;;;;;20.05;6.10;;;;;;;;;;4363741;32;20069;-77
2021/03/12 04:04:24;;;;;;;24.00;6.62;;;;;;;;;;4369013;32;20119;-77
2021/03/12 04:06:52;;;;;;;40.33;30.85;;;;;;;;;;4367157;32;20559;-77
2021/03/12 04:09:20;;;;;;;32.70;26.90;;;;;;;;;;4365290;32;20110;-77
2021/03/12 04:11:49;;;;;;;31.02;20.62;;;;;;;;;;4362621;32;20055;-77
2021/03/12 04:14:23;;;;;;;19.08;11.52;;;;;;;;;;4364780;32;20351;-76
2021/03/12 04:16:53;;;;;;;19.83;6.97;;;;;;;;;;4363845;32;20055;-77
2021/03/12 04:19:22;;;;;;;15.07;5.90;;;;;;;;;;4365382;32;20531;-77
2021/03/12 04:21:50;;;;;;;22.02;5.70;;;;;;;;;;4366389;32;20081;-76
2021/03/12 04:24:19;;;;;;;15.60;5.90;;;;;;;;;;4368431;32;20051;-77
2021/03/12 04:26:47;;;;;;;18.62;7.57;;;;;;;;;;4365526;32;20132;-78
2021/03/12 04:29:18;;;;;;;17.30;5.80;;;;;;;;;;4363015;32;20059;-77
2021/03/12 04:31:47;;;;;;;14.40;5.43;;;;;;;;;;4366548;32;20130;-76
2021/03/12 04:34:15;;;;;;;21.17;5.97;;;;;;;;;;4368799;32;20146;-77
2021/03/12 04:36:44;;;;;;;17.10;5.62;;;;;;;;;;4364974;32;20055;-76
2021/03/12 04:39:13;;;;;;;17.80;5.65;;;;;;;;;;4361792;32;20113;-77
2021/03/12 04:41:41;;;;;;;16.15;6.28;;;;;;;;;;4358606;32;20191;-77
2021/03/12 04:44:10;;;;;;;15.13;5.45;;;;;;;;;;4367761;32;20055;-77
2021/03/12 04:46:40;;;;;;;20.88;5.62;;;;;;;;;;4366920;32;20077;-77
2021/03/12 04:49:11;;;;;;;22.58;5.25;;;;;;;;;;4365221;32;20085;-77
2021/03/12 04:51:40;;;;;;;15.93;5.28;;;;;;;;;;4354043;32;20074;-77
2021/03/12 04:54:09;;;;;;;20.00;4.53;;;;;;;;;;4364511;32;20051;-77
2021/03/12 04:56:38;;;;;;;19.98;5.40;;;;;;;;;;4367314;32;20436;-77
2021/03/12 04:59:08;;;;;;;15.10;8.45;;;;;;;;;;4364195;32;20598;-77
2021/03/12 05:01:37;;;;;;;21.90;8.57;;;;;;;;;;4364657;32;20081;-78
2021/03/12 05:04:05;;;;;;;19.23;4.93;;;;;;;;;;4367492;32;20106;-76
2021/03/12 05:06:34;;;;;;;14.48;4.45;;;;;;;;;;4366943;32;20109;-77
2021/03/12 05:09:03;;;;;;;15.82;4.40;;;;;;;;;;4364915;32;20059;-77
2021/03/12 05:11:31;;;;;;;14.27;4.78;;;;;;;;;;4366769;32;20082;-77
2021/03/12 05:14:00;;;;;;;14.15;4.80;;;;;;;;;;4351415;32;20587;-77
2021/03/12 05:16:28;;;;;;;13.40;5.03;;;;;;;;;;4361024;32;20074;-78
2021/03/12 05:18:57;;;;;;;23.05;16.75;;;;;;;;;;4362181;32;20051;-77
2021/03/12 05:21:26;;;;;;;31.50;18.75;;;;;;;;;;4362421;32;20134;-79
2021/03/12 05:23:54;;;;;;;32.10;25.17;;;;;;;;;;4368199;32;20077;-77
2021/03/12 05:26:22;;;;;;;50.90;39.15;;;;;;;;;;4367713;32;20154;-77
2021/03/12 05:28:54;;;;;;;35.67;30.20;;;;;;;;;;4363726;32;20050;-76
2021/03/12 05:31:26;;;;;;;41.20;30.35;;;;;;;;;;4366978;32;20043;-77
2021/03/12 05:33:55;;;;;;;34.75;29.48;;;;;;;;;;4367937;32;20066;-76
2021/03/12 05:36:23;;;;;;;35.97;30.35;;;;;;;;;;4366772;32;20065;-78
2021/03/12 05:38:52;;;;;;;34.13;23.92;;;;;;;;;;4364143;32;20112;-77
2021/03/12 05:41:20;;;;;;;28.98;21.17;;;;;;;;;;4366253;32;20067;-77
2021/03/12 05:43:48;;;;;;;29.42;22.98;;;;;;;;;;4368445;32;20062;-77
2021/03/12 05:46:16;;;;;;;32.70;22.17;;;;;;;;;;4365719;32;20608;-77
2021/03/12 05:48:46;;;;;;;35.95;25.88;;;;;;;;;;4363874;32;20059;-77
2021/03/12 05:51:15;;;;;;;32.33;27.35;;;;;;;;;;4364836;32;20118;-77
2021/03/12 05:53:46;;;;;;;31.60;26.58;;;;;;;;;;4369634;32;20052;-76
2021/03/12 05:56:16;;;;;;;31.40;27.70;;;;;;;;;;4354804;32;20059;-76
2021/03/12 05:58:47;;;;;;;33.97;30.20;;;;;;;;;;4365699;32;20433;-76
2021/03/12 06:01:15;;;;;;;29.87;22.10;;;;;;;;;;4364891;32;20130;-77
2021/03/12 06:03:44;;;;;;;19.75;5.40;;;;;;;;;;4364862;32;20063;-77
2021/03/12 06:06:12;;;;;;;17.58;7.68;;;;;;;;;;4364673;32;20079;-76
2021/03/12 06:08:41;;;;;;;34.15;30.40;;;;;;;;;;4363880;32;20240;-76
2021/03/12 06:11:09;;;;;;;38.80;33.47;;;;;;;;;;4363848;32;20642;-77
2021/03/12 06:13:52;;;;;;;48.05;38.25;;;;;;;;;;4367649;32;20064;-77
2021/03/12 06:16:31;;;;;;;33.15;23.45;;;;;;;;;;4357665;32;20087;-77
2021/03/12 06:19:19;;;;;;;29.52;26.65;;;;;;;;;;4356213;32;20188;-78
2021/03/12 06:21:49;;;;;;;37.95;29.10;;;;;;;;;;4364830;32;20055;-77
2021/03/12 06:24:31;;;;;;;21.20;13.85;;;;;;;;;;4366863;32;20047;-77
2021/03/12 06:27:01;;;;;;;33.53;28.13;;;;;;;;;;4364301;32;20087;-76
2021/03/12 06:29:34;;;;;;;35.88;29.65;;;;;;;;;;4367823;32;20578;-77
2021/03/12 06:32:03;;;;;;;59.63;43.58;;;;;;;;;;4367673;32;20485;-77
2021/03/12 06:34:35;;;;;;;39.85;33.20;;;;;;;;;;4369719;32;20412;-77
2021/03/12 06:37:25;;;;;;;47.00;35.25;;;;;;;;;;4366499;32;20086;-77
2021/03/12 06:39:53;;;;;;;42.28;34.50;;;;;;;;;;4365376;32;20871;-77
2021/03/12 06:42:23;;;;;;;30.85;27.37;;;;;;;;;;4366007;32;20480;-76
2021/03/12 06:44:51;;;;;;;50.60;41.00;;;;;;;;;;4365369;32;20102;-76
2021/03/12 06:47:21;;;;;;;34.70;30.95;;;;;;;;;;4367890;32;20522;-77
2021/03/12 06:49:55;;;;;;;30.92;26.33;;;;;;;;;;4367336;32;20051;-76
2021/03/12 06:52:36;;;;;;;39.92;35.40;;;;;;;;;;4365547;32;20448;-77
2021/03/12 06:55:06;;;;;;;15.77;4.40;;;;;;;;;;4365183;32;20105;-77
2021/03/12 06:57:34;;;;;;;10.05;4.07;;;;;;;;;;4367994;32;20055;-77
2021/03/12 07:00:08;;;;;;;17.45;5.10;;;;;;;;;;4366906;32;20130;-77
2021/03/12 07:02:37;;;;;;;12.80;4.45;;;;;;;;;;4365664;32;20047;-76
2021/03/12 07:05:07;;;;;;;11.52;4.43;;;;;;;;;;4363393;32;20164;-77
2021/03/12 07:07:39;;;;;;;10.85;4.43;;;;;;;;;;4364712;32;20052;-79
2021/03/12 07:10:08;;;;;;;14.25;4.68;;;;;;;;;;4367303;32;20055;-76
2021/03/12 07:12:51;;;;;;;12.25;4.45;;;;;;;;;;4365782;32;20047;-77
2021/03/12 07:15:20;;;;;;;11.82;3.95;;;;;;;;;;4365569;32;20055;-77
2021/03/12 07:17:50;;;;;;;15.95;5.05;;;;;;;;;;4367356;32;20495;-76
2021/03/12 07:20:20;;;;;;;30.42;7.82;;;;;;;;;;4366530;32;20055;-78
2021/03/12 07:22:49;;;;;;;23.00;5.45;;;;;;;;;;4366121;32;20056;-77
2021/03/12 07:25:20;;;;;;;34.78;31.02;;;;;;;;;;4366602;32;20112;-77
2021/03/12 07:27:49;;;;;;;32.22;27.55;;;;;;;;;;4369523;32;20129;-77
2021/03/12 07:30:18;;;;;;;20.25;18.27;;;;;;;;;;4368023;32;20383;-77
2021/03/12 07:32:47;;;;;;;20.95;12.75;;;;;;;;;;4366956;32;20111;-77
2021/03/12 07:35:18;;;;;;;22.27;19.00;;;;;;;;;;4364943;32;20128;-77
2021/03/12 07:37:49;;;;;;;23.75;15.35;;;;;;;;;;4368251;32;20062;-76
2021/03/12 07:40:18;;;;;;;23.15;19.87;;;;;;;;;;4364381;32;20082;-78
2021/03/12 07:42:48;;;;;;;13.73;10.98;;;;;;;;;;4362535;32;20036;-77
2021/03/12 07:45:21;;;;;;;16.73;8.07;;;;;;;;;;4360404;32;20166;-77
2021/03/12 07:47:52;;;;;;;9.13;4.03;;;;;;;;;;4363452;32;20086;-77
2021/03/12 07:50:29;;;;;;;874.30;816.30;;;;;;;;;;4361736;32;20123;-77
2021/03/12 07:52:58;;;;;;;1306.43;690.95;;;;;;;;;;4362349;32;20178;-77
2021/03/12 07:55:36;;;;;;;1999.90;999.90;;;;;;;;;;4366521;32;20482;-77
2021/03/12 07:58:14;;;;;;;1999.90;999.90;;;;;;;;;;4367727;32;20094;-77
2021/03/12 08:00:53;;;;;;;1999.90;999.90;;;;;;;;;;4367434;32;20051;-77
2021/03/12 08:03:32;;;;;;;1999.90;999.90;;;;;;;;;;4361189;32;20113;-77
2021/03/12 08:06:01;;;;;;;1999.90;999.90;;;;;;;;;;4367577;32;20130;-78
2021/03/12 08:08:37;;;;;;;1999.90;999.90;;;;;;;;;;4359299;32;20209;-79
2021/03/12 08:11:32;;;;;;;1999.90;999.90;;;;;;;;;;4358199;32;20764;-77
2021/03/12 08:14:10;;;;;;;16.52;10.65;;;;;;;;;;4357506;32;20073;-77
2021/03/12 08:17:00;;;;;;;12.37;8.98;;;;;;;;;;4368999;32;20051;-78
2021/03/12 08:19:29;;;;;;;3.28;3.17;;;;;;;;;;4357124;32;20642;-78
2021/03/12 08:21:58;;;;;;;0.80;0.80;;;;;;;;;;4351899;32;20066;-79
2021/03/12 08:24:42;;;;;;;127.18;120.22;;;;;;;;;;4365160;32;20063;-78
2021/03/12 08:27:11;;;;;;;287.60;274.20;;;;;;;;;;4362204;32;20754;-78
2021/03/12 08:29:44;;;;;;;10.85;2.95;;;;;;;;;;4359619;32;20176;-79
2021/03/12 08:32:31;;;;;;;16.83;13.90;;;;;;;;;;4366411;32;20097;-79
2021/03/12 08:35:05;;;;;;;13.25;8.95;;;;;;;;;;4357461;32;20179;-79
2021/03/12 08:37:41;;;;;;;7.72;2.35;;;;;;;;;;4357200;32;20160;-80
2021/03/12 08:40:15;;;;;;;10.00;2.70;;;;;;;;;;4355390;32;20070;-79
2021/03/12 08:43:12;;;;;;;7.20;2.40;;;;;;;;;;4352215;32;20125;-79
2021/03/12 08:45:46;;;;;;;7.28;1.70;;;;;;;;;;4356051;32;20402;-79
2021/03/12 08:48:17;;;;;;;6.00;1.50;;;;;;;;;;4358438;32;20052;-79
2021/03/12 08:50:56;;;;;;;9.38;1.33;;;;;;;;;;4355625;32;20103;-79
2021/03/12 08:53:27;;;;;;;10.27;2.17;;;;;;;;;;4356481;32;20097;-79
2021/03/12 08:55:57;;;;;;;7.75;2.42;;;;;;;;;;4359898;32;20055;-79
2021/03/12 08:58:27;;;;;;;9.82;2.50;;;;;;;;;;4364127;32;20433;-79
2021/03/12 09:01:00;;;;;;;4.82;2.05;;;;;;;;;;4360804;32;20122;-79
2021/03/12 09:03:31;;;;;;;6.47;2.20;;;;;;;;;;4358818;32;20097;-79
2021/03/12 09:06:07;;;;;;;6.18;2.12;;;;;;;;;;4359811;32;20101;-79
2021/03/12 09:08:38;;;;;;;7.93;2.22;;;;;;;;;;4362330;32;20059;-80
2021/03/12 09:11:10;;;;;;;5.87;2.17;;;;;;;;;;4364491;32;20071;-79
2021/03/12 09:13:40;;;;;;;7.53;2.40;;;;;;;;;;4359311;32;20039;-80
2021/03/12 09:16:16;;;;;;;8.43;2.45;;;;;;;;;;4349320;32;20118;-79
2021/03/12 09:18:45;;;;;;;10.45;2.40;;;;;;;;;;4356006;32;20090;-81
2021/03/12 09:21:16;;;;;;;4.90;2.30;;;;;;;;;;4354999;32;20481;-79
2021/03/12 09:23:49;;;;;;;6.18;2.30;;;;;;;;;;4354262;32;20059;-81
2021/03/12 09:26:17;;;;;;;7.05;2.60;;;;;;;;;;4358807;32;20103;-79
2021/03/12 09:28:47;;;;;;;3.95;2.53;;;;;;;;;;4361805;32;20055;-78
2021/03/12 09:31:16;;;;;;;8.27;2.58;;;;;;;;;;4364601;32;20342;-79
2021/03/12 09:33:47;;;;;;;7.00;2.90;;;;;;;;;;4363918;32;20093;-80
2021/03/12 09:36:25;;;;;;;6.97;2.28;;;;;;;;;;4366950;32;20076;-80
2021/03/12 09:38:55;;;;;;;6.53;2.60;;;;;;;;;;4362438;32;20137;-79
2021/03/12 09:41:25;;;;;;;7.20;2.47;;;;;;;;;;4357472;32;20064;-79
2021/03/12 09:44:03;;;;;;;4.53;2.20;;;;;;;;;;4364351;32;20066;-79
2021/03/12 09:46:32;;;;;;;;;;;;;;;;;;4359868;32;20160;-79
2021/03/12 09:49:01;;;;;;;9.48;2.85;;;;;;;;;;4344404;32;19947;-79
2021/03/12 09:51:31;;;;;;;6.12;2.50;;;;;;;;;;4358487;32;20716;-80
2021/03/12 09:54:00;;;;;;;4.43;2.12;;;;;;;;;;4362736;32;20417;-79
2021/03/12 09:56:29;;;;;;;6.07;2.33;;;;;;;;;;4348569;32;20130;-79
2021/03/12 09:59:02;;;;;;;10.35;2.90;;;;;;;;;;4359552;32;20206;-79
2021/03/12 10:01:39;;;;;;;6.53;2.53;;;;;;;;;;4362946;32;20075;-80
2021/03/12 10:04:29;;;;;;;7.47;2.70;;;;;;;;;;4366713;32;20059;-79
2021/03/12 10:07:09;;;;;;;6.93;2.65;;;;;;;;;;4366751;32;20888;-79
2021/03/12 10:09:41;;;;;;;7.85;2.53;;;;;;;;;;4351060;32;20086;-81
2021/03/12 10:12:17;;;;;;;8.65;2.87;;;;;;;;;;4360782;32;20473;-79
2021/03/12 10:14:46;;;;;;;6.53;2.90;;;;;;;;;;4361658;32;20070;-79
2021/03/12 10:17:21;;;;;;;9.02;3.37;;;;;;;;;;4363127;32;20055;-79
2021/03/12 10:19:52;;;;;;;7.60;2.83;;;;;;;;;;4372042;32;20085;-80
2021/03/12 10:22:26;;;;;;;9.00;2.60;;;;;;;;;;4358179;32;20127;-80
2021/03/12 10:25:01;;;;;;;10.70;3.30;;;;;;;;;;4364416;32;20063;-79
2021/03/12 10:27:30;;;;;;;8.60;2.97;;;;;;;;;;4367082;32;20343;-80
2021/03/12 10:29:59;;;;;;;7.03;2.55;;;;;;;;;;4357875;32;20488;-81
2021/03/12 10:32:28;;;;;;;5.72;2.90;;;;;;;;;;4356910;32;20467;-79
2021/03/12 10:34:57;;;;;;;12.43;3.20;;;;;;;;;;4364749;32;20439;-80
2021/03/12 10:37:32;;;;;;;9.63;3.00;;;;;;;;;;4356410;32;20123;-79
2021/03/12 10:40:06;;;;;;;7.70;2.87;;;;;;;;;;4368155;32;20205;-79
2021/03/12 10:42:35;;;;;;;8.02;2.75;;;;;;;;;;4370087;32;20055;-79
2021/03/12 10:45:07;;;;;;;8.13;2.92;;;;;;;;;;4369710;32;20051;-79
2021/03/12 10:47:36;;;;;;;11.82;3.08;;;;;;;;;;4365229;32;20114;-78
2021/03/12 10:50:21;;;;;;;7.57;2.78;;;;;;;;;;4369401;32;20464;-79
2021/03/12 10:52:49;;;;;;;7.47;3.05;;;;;;;;;;4371335;32;20423;-80
2021/03/12 10:55:18;;;;;;;6.75;2.55;;;;;;;;;;4367839;32;20125;-79
2021/03/12 10:57:48;;;;;;;9.05;2.62;;;;;;;;;;4365725;32;20547;-79
2021/03/12 11:00:23;;;;;;;8.63;2.90;;;;;;;;;;4367932;32;20067;-79
2021/03/12 11:02:51;;;;;;;8.10;3.00;;;;;;;;;;4370624;32;20436;-79
2021/03/12 11:05:19;;;;;;;6.12;2.58;;;;;;;;;;4368113;32;20083;-78
2021/03/12 11:07:47;;;;;;;29.92;4.37;;;;;;;;;;4367300;32;20075;-79
2021/03/12 11:10:15;;;;;;;12.88;3.28;;;;;;;;;;4366624;32;20521;-79
2021/03/12 11:12:45;;;;;;;11.38;3.12;;;;;;;;;;4365269;32;20047;-80
2021/03/12 11:15:14;;;;;;;4.72;2.62;;;;;;;;;;4365617;32;20131;-79
2021/03/12 11:17:45;;;;;;;9.68;3.37;;;;;;;;;;4360314;32;20097;-80
2021/03/12 11:20:18;;;;;;;7.82;3.03;;;;;;;;;;4348655;32;20111;-79
2021/03/12 11:22:47;;;;;;;6.55;3.10;;;;;;;;;;4366032;32;20184;-79
2021/03/12 11:25:16;;;;;;;7.28;2.75;;;;;;;;;;4364835;32;20426;-79
2021/03/12 11:27:45;;;;;;;6.97;2.90;;;;;;;;;;4365024;32;20050;-79
2021/03/12 11:30:15;;;;;;;9.45;2.90;;;;;;;;;;4364812;32;20582;-79
2021/03/12 11:32:43;;;;;;;10.77;2.95;;;;;;;;;;4367632;32;20139;-78
2021/03/12 11:35:13;;;;;;;10.88;3.20;;;;;;;;;;4365721;32;20059;-78
2021/03/12 11:37:41;;;;;;;5.78;2.60;;;;;;;;;;4364349;32;20054;-79
2021/03/12 11:40:10;;;;;;;4.37;2.85;;;;;;;;;;4369659;32;20098;-81
2021/03/12 11:42:38;;;;;;;15.07;3.28;;;;;;;;;;4361940;32;20493;-78
2021/03/12 11:45:07;;;;;;;7.97;3.05;;;;;;;;;;4365215;32;20054;-79
2021/03/12 11:47:38;;;;;;;10.63;3.40;;;;;;;;;;4363840;32;20412;-79
2021/03/12 11:50:08;;;;;;;8.75;3.15;;;;;;;;;;4365577;32;20055;-79
2021/03/12 11:52:37;;;;;;;10.82;2.72;;;;;;;;;;4360409;32;20081;-79
2021/03/12 11:55:09;;;;;;;1202.13;552.05;;;;;;;;;;4361593;32;20415;-78
2021/03/12 11:57:37;;;;;;;5.45;1.42;;;;;;;;;;4365838;32;20078;-80
2021/03/12 12:00:10;;;;;;;7.22;1.75;;;;;;;;;;4365711;32;20085;-79
2021/03/12 12:02:39;;;;;;;3.72;1.30;;;;;;;;;;4365266;32;20056;-79
2021/03/12 12:05:09;;;;;;;5.45;1.20;;;;;;;;;;4363042;32;20119;-80
2021/03/12 12:07:38;;;;;;;11.32;3.55;;;;;;;;;;4345630;32;20056;-80
2021/03/12 12:10:07;;;;;;;9.30;4.10;;;;;;;;;;4366725;32;20469;-79
2021/03/12 12:12:35;;;;;;;11.05;3.47;;;;;;;;;;4365739;32;20469;-83
2021/03/12 12:15:04;;;;;;;15.85;3.78;;;;;;;;;;4366844;32;20384;-79
2021/03/12 12:17:32;;;;;;;8.30;3.90;;;;;;;;;;4359548;32;20442;-82
2021/03/12 12:20:00;;;;;;;9.85;3.08;;;;;;;;;;4366697;32;20114;-79
2021/03/12 12:22:28;;;;;;;13.85;3.17;;;;;;;;;;4365618;32;20067;-79
2021/03/12 12:24:56;;;;;;;9.27;3.00;;;;;;;;;;4365570;32;20679;-81
2021/03/12 12:27:25;;;;;;;13.52;3.62;;;;;;;;;;4366407;32;21733;-81
2021/03/12 12:29:53;;;;;;;9.95;3.78;;;;;;;;;;4368357;32;20086;-80
2021/03/12 12:32:21;;;;;;;24.77;5.53;;;;;;;;;;4363824;32;20066;-80
2021/03/12 12:34:50;;;;;;;8.20;3.90;;;;;;;;;;4361779;32;20058;-80
2021/03/12 12:37:18;;;;;;;11.10;4.15;;;;;;;;;;4364127;32;20135;-79
2021/03/12 12:39:46;;;;;;;6.15;3.12;;;;;;;;;;4364151;32;20061;-79
2021/03/12 12:42:15;;;;;;;14.77;3.42;;;;;;;;;;4361317;32;20453;-80
2021/03/12 12:44:42;;;;;;;16.80;3.70;;;;;;;;;;4362892;32;20303;-81
2021/03/12 12:47:10;;;;;;;11.00;4.70;;;;;;;;;;4364314;32;20122;-81
2021/03/12 12:49:43;;;;;;;8.32;3.33;;;;;;;;;;4363484;32;20102;-80
2021/03/12 12:52:11;;;;;;;10.82;3.55;;;;;;;;;;4363461;32;20472;-80
2021/03/12 12:54:39;;;;;;;7.80;3.12;;;;;;;;;;4363182;32;20055;-81
2021/03/12 12:57:08;;;;;;;27.73;4.07;;;;;;;;;;4364865;32;20110;-81
2021/03/12 12:59:37;;;;;;;16.40;3.70;;;;;;;;;;4365939;32;20051;-79
2021/03/12 13:02:04;;;;;;;294.83;192.80;;;;;;;;;;4366526;32;20590;-82
2021/03/12 13:04:33;;;;;;;16.42;6.68;;;;;;;;;;4364382;32;20157;-80
2021/03/12 13:07:01;;;;;;;8.65;3.10;;;;;;;;;;4363507;32;20107;-78
2021/03/12 13:09:29;;;;;;;17.48;3.70;;;;;;;;;;4361467;32;20119;-79
2021/03/12 13:11:57;;;;;;;8.20;3.20;;;;;;;;;;4364030;32;20070;-81
2021/03/12 13:14:25;;;;;;;11.57;3.28;;;;;;;;;;4364145;32;20059;-81
2021/03/12 13:16:53;;;;;;;13.68;3.08;;;;;;;;;;4367306;32;20102;-80
2021/03/12 13:19:21;;;;;;;20.40;3.67;;;;;;;;;;4359970;32;20115;-81
2021/03/12 13:21:51;;;;;;;12.20;3.15;;;;;;;;;;4362060;32;20118;-80
2021/03/12 13:24:19;;;;;;;11.27;3.25;;;;;;;;;;4350715;32;20145;-80
2021/03/12 13:26:47;;;;;;;16.95;3.30;;;;;;;;;;4367058;32;20100;-80
2021/03/12 13:29:15;;;;;;;9.05;3.00;;;;;;;;;;4365310;32;20059;-79
2021/03/12 13:31:43;;;;;;;12.82;3.20;;;;;;;;;;4349680;32;20578;-80
2021/03/12 13:34:11;;;;;;;6.80;3.00;;;;;;;;;;4361995;32;20097;-79
2021/03/12 13:36:41;;;;;;;8.93;3.00;;;;;;;;;;4363164;32;20059;-81
2021/03/12 13:39:09;;;;;;;8.07;3.28;;;;;;;;;;4371664;32;20047;-79
2021/03/12 13:41:38;;;;;;;9.93;2.97;;;;;;;;;;4364279;32;20044;-80
2021/03/12 13:44:09;;;;;;;5.43;2.28;;;;;;;;;;4362403;32;20548;-80
2021/03/12 13:46:38;;;;;;;15.80;3.25;;;;;;;;;;4349601;32;20137;-80
2021/03/12 13:49:07;;;;;;;9.82;2.87;;;;;;;;;;4364232;32;20087;-79
2021/03/12 13:51:35;;;;;;;8.23;2.85;;;;;;;;;;4359136;32;20090;-80
2021/03/12 13:54:03;;;;;;;6.05;2.80;;;;;;;;;;4360458;32;20103;-79
2021/03/12 13:56:31;;;;;;;9.88;3.33;;;;;;;;;;4363604;32;20057;-80
2021/03/12 13:58:59;;;;;;;11.02;2.60;;;;;;;;;;4345290;32;20063;-78
2021/03/12 14:01:27;;;;;;;10.20;3.33;;;;;;;;;;4361747;32;20047;-79
2021/03/12 14:03:56;;;;;;;8.50;2.78;;;;;;;;;;4363025;32;20132;-80
2021/03/12 14:06:24;;;;;;;8.90;2.60;;;;;;;;;;4360435;32;20106;-82
2021/03/12 14:08:52;;;;;;;9.27;2.92;;;;;;;;;;4359829;32;20099;-80
2021/03/12 14:11:20;;;;;;;11.85;3.33;;;;;;;;;;4344779;32;20064;-78
2021/03/12 14:13:48;;;;;;;8.60;3.17;;;;;;;;;;4362347;32;20099;-79
2021/03/12 14:16:19;;;;;;;14.55;3.50;;;;;;;;;;4362034;32;20060;-79
2021/03/12 14:18:48;;;;;;;8.02;3.20;;;;;;;;;;4339610;32;20180;-79
2021/03/12 14:21:17;;;;;;;7.25;2.72;;;;;;;;;;4341860;32;20087;-81
2021/03/12 14:23:44;;;;;;;6.10;2.37;;;;;;;;;;4360911;32;20055;-79
2021/03/12 14:26:13;;;;;;;7.18;2.70;;;;;;;;;;4362057;32;20111;-80
2021/03/12 14:29:02;;;;;;;13.13;3.10;;;;;;;;;;4348078;32;20105;-80
2021/03/12 14:31:31;;;;;;;9.68;3.08;;;;;;;;;;4363782;32;20055;-84
2021/03/12 14:33:59;;;;;;;9.63;2.87;;;;;;;;;;4362694;32;20157;-80
2021/03/12 14:36:27;;;;;;;11.52;3.15;;;;;;;;;;4361765;32;20110;-79
2021/03/12 14:38:55;;;;;;;12.57;2.90;;;;;;;;;;4359615;32;20066;-80
2021/03/12 14:41:23;;;;;;;10.48;2.95;;;;;;;;;;4362139;32;20055;-80
2021/03/12 14:43:52;;;;;;;13.98;3.00;;;;;;;;;;4361270;32;20196;-80
2021/03/12 14:46:28;;;;;;;9.20;2.70;;;;;;;;;;4362149;32;20118;-80
2021/03/12 14:48:56;;;;;;;8.55;2.62;;;;;;;;;;4363158;32;20073;-79
2021/03/12 14:51:29;;;;;;;11.77;2.80;;;;;;;;;;4369553;32;20512;-78